createdAt,value
2023-01-13T00:01:35.113Z,28.40
2023-01-13T00:04:01.868Z,16.00
2023-01-13T00:06:29.684Z,17.02
2023-01-13T00:08:56.689Z,21.88
2023-01-13T00:11:23.482Z,15.55
2023-01-13T00:13:50.344Z,17.45
2023-01-13T00:16:18.715Z,23.13
2023-01-13T00:18:46.495Z,37.65
2023-01-13T00:21:22.179Z,25.70
2023-01-13T00:23:49.882Z,20.45
2023-01-13T00:26:22.215Z,17.40
2023-01-13T00:28:49.608Z,26.23
2023-01-13T00:31:20.800Z,21.35
2023-01-13T00:33:49.151Z,18.75
2023-01-13T00:36:17.179Z,24.23
2023-01-13T00:38:44.699Z,24.88
2023-01-13T00:41:14.198Z,21.73
2023-01-13T00:43:42.407Z,24.25
2023-01-13T00:46:11.165Z,22.48
2023-01-13T00:48:38.471Z,15.88
2023-01-13T00:51:12.041Z,32.88
2023-01-13T00:53:44.385Z,25.92
2023-01-13T00:56:18.220Z,24.77
2023-01-13T00:58:47.682Z,18.50
2023-01-13T01:01:17.445Z,25.92
2023-01-13T01:03:44.297Z,29.48
2023-01-13T01:06:14.867Z,26.10
2023-01-13T01:08:42.586Z,24.35
2023-01-13T01:11:11.772Z,22.98
2023-01-13T01:13:39.312Z,33.63
2023-01-13T01:16:13.291Z,33.40
2023-01-13T01:18:45.864Z,24.90
2023-01-13T01:21:14.447Z,20.50
2023-01-13T01:23:41.996Z,26.38
2023-01-13T01:26:36.014Z,29.92
2023-01-13T01:29:02.703Z,27.92
2023-01-13T01:31:33.658Z,26.25
2023-01-13T01:34:01.570Z,20.20
2023-01-13T01:36:30.262Z,19.88
2023-01-13T01:38:58.950Z,25.42
2023-01-13T01:41:28.681Z,25.65
2023-01-13T01:44:07.028Z,19.08
2023-01-13T01:46:44.750Z,14.48
2023-01-13T01:49:21.503Z,23.05
2023-01-13T01:52:14.588Z,17.35
2023-01-13T01:54:46.818Z,30.92
2023-01-13T01:57:18.907Z,22.25
2023-01-13T01:59:45.995Z,24.42
2023-01-13T02:02:13.134Z,20.67
2023-01-13T02:04:43.368Z,21.55
2023-01-13T02:07:10.254Z,27.85
2023-01-13T02:09:37.055Z,30.13
2023-01-13T02:12:22.527Z,17.98
2023-01-13T02:14:49.368Z,24.13
2023-01-13T02:17:22.287Z,27.05
2023-01-13T02:20:22.985Z,22.90
2023-01-13T02:23:42.467Z,21.38
2023-01-13T02:26:23.456Z,26.65
2023-01-13T02:29:31.721Z,28.45
2023-01-13T02:32:08.774Z,19.42
2023-01-13T02:34:43.325Z,30.33
2023-01-13T02:37:23.835Z,22.05
2023-01-13T02:40:19.430Z,14.95
2023-01-13T02:43:15.195Z,17.52
2023-01-13T02:45:58.860Z,21.88
2023-01-13T02:48:30.001Z,26.85
2023-01-13T02:51:01.937Z,19.73
2023-01-13T02:53:34.420Z,14.40
2023-01-13T02:56:05.108Z,21.15
2023-01-13T02:58:35.123Z,27.95
2023-01-13T03:01:02.164Z,17.55
2023-01-13T03:03:28.972Z,21.27
2023-01-13T03:06:20.744Z,17.90
2023-01-13T03:08:53.573Z,19.85
2023-01-13T03:11:21.322Z,24.92
2023-01-13T03:14:18.130Z,18.48
2023-01-13T03:17:27.384Z,28.27
2023-01-13T03:20:14.506Z,15.52
2023-01-13T03:22:54.204Z,19.90
2023-01-13T03:25:36.193Z,15.27
2023-01-13T03:28:10.329Z,21.95
2023-01-13T03:30:47.804Z,11.23
2023-01-13T03:33:29.120Z,22.90
2023-01-13T03:36:02.147Z,19.90
2023-01-13T03:38:30.703Z,16.38
2023-01-13T03:41:02.099Z,12.95
2023-01-13T03:44:02.352Z,14.48
2023-01-13T03:47:05.519Z,17.27
2023-01-13T03:49:57.474Z,18.77
2023-01-13T03:52:29.197Z,14.82
2023-01-13T03:55:05.318Z,14.98
2023-01-13T03:57:39.039Z,14.23
2023-01-13T04:00:28.041Z,15.00
2023-01-13T04:02:58.982Z,16.45
2023-01-13T04:05:27.420Z,14.27
2023-01-13T04:08:12.062Z,18.38
2023-01-13T04:10:50.720Z,20.92
2023-01-13T04:13:21.665Z,21.17
2023-01-13T04:15:49.667Z,9.30
2023-01-13T04:18:18.339Z,11.13
2023-01-13T04:20:48.404Z,16.30
2023-01-13T04:23:15.663Z,13.40
2023-01-13T04:25:43.566Z,19.25
2023-01-13T04:28:11.278Z,17.67
2023-01-13T04:30:38.852Z,20.45
2023-01-13T04:33:06.395Z,15.73
2023-01-13T04:35:34.417Z,13.57
2023-01-13T04:38:07.962Z,18.63
2023-01-13T04:40:35.108Z,20.92
2023-01-13T04:43:01.987Z,23.73
2023-01-13T04:45:28.659Z,16.45
2023-01-13T04:47:55.497Z,20.45
2023-01-13T04:50:22.956Z,11.82
2023-01-13T04:52:50.898Z,17.17
2023-01-13T04:55:18.984Z,18.42
2023-01-13T04:57:46.008Z,18.83
2023-01-13T05:00:15.715Z,10.27
2023-01-13T05:02:42.758Z,25.60
2023-01-13T05:05:10.576Z,17.63
2023-01-13T05:07:37.478Z,17.60
2023-01-13T05:10:06.486Z,12.40
2023-01-13T05:12:51.841Z,11.35
2023-01-13T05:15:37.148Z,16.02
2023-01-13T05:18:04.455Z,14.20
2023-01-13T05:20:32.395Z,13.57
2023-01-13T05:23:17.572Z,14.30
2023-01-13T05:25:47.773Z,15.05
2023-01-13T05:28:14.930Z,14.40
2023-01-13T05:30:46.321Z,16.33
2023-01-13T05:33:18.696Z,12.13
2023-01-13T05:35:46.901Z,13.15
2023-01-13T05:38:14.363Z,19.35
2023-01-13T05:41:00.818Z,19.98
2023-01-13T05:43:28.480Z,22.08
2023-01-13T05:46:01.572Z,17.98
2023-01-13T05:48:34.544Z,16.00
2023-01-13T05:51:02.776Z,16.75
2023-01-13T05:53:30.336Z,23.92
2023-01-13T05:55:57.426Z,20.95
2023-01-13T05:58:26.564Z,17.48
2023-01-13T06:00:59.162Z,13.52
2023-01-13T06:03:26.052Z,11.70
2023-01-13T06:05:58.469Z,12.57
2023-01-13T06:08:25.400Z,22.23
2023-01-13T06:10:52.119Z,15.05
2023-01-13T06:13:18.853Z,18.02
2023-01-13T06:15:45.809Z,18.05
2023-01-13T06:18:12.695Z,20.92
2023-01-13T06:20:39.735Z,24.65
2023-01-13T06:23:10.920Z,21.58
2023-01-13T06:26:19.468Z,19.40
2023-01-13T06:28:46.672Z,10.40
2023-01-13T06:31:13.840Z,20.63
2023-01-13T06:33:50.100Z,17.60
2023-01-13T06:36:22.439Z,10.50
2023-01-13T06:38:54.459Z,12.38
2023-01-13T06:41:45.644Z,15.32
2023-01-13T06:44:12.626Z,19.33
2023-01-13T06:49:36.224Z,17.20
2023-01-13T06:52:03.267Z,12.60
2023-01-13T06:54:30.664Z,19.10
2023-01-13T06:56:57.595Z,18.58
2023-01-13T06:59:25.332Z,15.30
2023-01-13T07:01:52.404Z,17.55
2023-01-13T07:04:19.554Z,27.80
2023-01-13T07:06:46.737Z,14.45
2023-01-13T07:09:13.513Z,13.90
2023-01-13T07:11:40.329Z,19.27
2023-01-13T07:14:25.718Z,13.68
2023-01-13T07:16:53.165Z,21.42
2023-01-13T07:19:23.970Z,10.23
2023-01-13T07:21:52.553Z,16.60
2023-01-13T07:24:20.384Z,17.23
2023-01-13T07:26:47.343Z,17.27
2023-01-13T07:29:14.333Z,16.58
2023-01-13T07:31:41.091Z,17.33
2023-01-13T07:34:09.071Z,19.42
2023-01-13T07:36:36.545Z,11.27
2023-01-13T07:39:05.567Z,12.30
2023-01-13T07:41:50.870Z,19.88
2023-01-13T07:44:18.635Z,17.23
2023-01-13T07:46:45.395Z,16.63
2023-01-13T07:49:13.398Z,13.82
2023-01-13T07:51:40.676Z,15.57
2023-01-13T07:54:07.563Z,14.18
2023-01-13T07:56:34.309Z,16.27
2023-01-13T07:59:01.480Z,22.38
2023-01-13T08:01:29.137Z,21.52
2023-01-13T08:03:56.383Z,20.60
2023-01-13T08:06:23.279Z,18.25
2023-01-13T08:08:50.369Z,13.55
2023-01-13T08:11:18.104Z,13.50
2023-01-13T08:13:45.947Z,14.05
2023-01-13T08:16:14.954Z,19.45
2023-01-13T08:18:42.413Z,25.55
2023-01-13T08:21:14.228Z,15.93
2023-01-13T08:23:45.284Z,12.52
2023-01-13T08:26:16.418Z,16.23
2023-01-13T08:28:43.966Z,13.93
2023-01-13T08:31:22.719Z,9.95
2023-01-13T08:33:50.179Z,11.25
2023-01-13T08:36:18.442Z,14.35
2023-01-13T08:38:45.481Z,15.32
2023-01-13T08:41:14.942Z,20.52
2023-01-13T08:43:42.308Z,18.05
2023-01-13T08:46:09.523Z,16.08
2023-01-13T08:48:36.690Z,10.70
2023-01-13T08:51:06.533Z,15.55
2023-01-13T08:53:33.692Z,14.45
2023-01-13T08:56:00.663Z,8.98
2023-01-13T08:58:27.497Z,17.02
2023-01-13T09:00:54.293Z,13.57
2023-01-13T09:03:21.341Z,23.92
2023-01-13T09:05:48.257Z,18.27
2023-01-13T09:08:15.085Z,15.57
2023-01-13T09:10:42.018Z,12.98
2023-01-13T09:13:13.423Z,17.48
2023-01-13T09:15:42.782Z,18.30
2023-01-13T09:18:10.051Z,21.63
2023-01-13T09:20:40.252Z,17.73
2023-01-13T09:23:10.698Z,13.35
2023-01-13T09:25:38.271Z,11.30
2023-01-13T09:28:12.486Z,14.73
2023-01-13T09:30:39.495Z,14.57
2023-01-13T09:33:25.073Z,18.10
2023-01-13T09:35:52.284Z,12.75
2023-01-13T09:38:20.333Z,10.25
2023-01-13T09:40:52.804Z,11.18
2023-01-13T09:43:51.499Z,12.93
2023-01-13T09:46:41.704Z,9.82
2023-01-13T09:49:20.874Z,13.05
2023-01-13T09:52:27.094Z,16.35
2023-01-13T09:55:16.891Z,7.68
2023-01-13T09:57:43.933Z,9.82
2023-01-13T10:00:12.572Z,13.45
2023-01-13T10:02:45.376Z,13.75
2023-01-13T10:05:41.177Z,12.77
2023-01-13T10:08:21.983Z,10.07
2023-01-13T10:10:51.329Z,15.00
2023-01-13T10:13:29.678Z,11.35
2023-01-13T10:16:05.343Z,15.77
2023-01-13T10:18:58.519Z,8.93
2023-01-13T10:22:03.060Z,10.35
2023-01-13T10:24:49.378Z,12.80
2023-01-13T10:27:34.901Z,12.35
2023-01-13T10:30:35.483Z,14.20
2023-01-13T10:33:11.142Z,12.70
2023-01-13T10:35:54.990Z,12.45
2023-01-13T10:38:29.641Z,9.35
2023-01-13T10:40:59.115Z,10.43
2023-01-13T10:43:27.185Z,11.27
2023-01-13T10:45:57.846Z,7.68
2023-01-13T10:48:33.251Z,9.10
2023-01-13T10:51:21.255Z,12.95
2023-01-13T10:53:55.849Z,11.45
2023-01-13T10:56:25.565Z,11.07
2023-01-13T10:58:52.607Z,13.20
2023-01-13T11:01:26.190Z,8.57
2023-01-13T11:03:54.885Z,8.82
2023-01-13T11:06:36.395Z,19.60
2023-01-13T11:09:04.207Z,16.58
2023-01-13T11:11:42.828Z,7.50
2023-01-13T11:14:41.448Z,6.43
2023-01-13T11:17:37.753Z,9.20
2023-01-13T11:20:14.241Z,13.05
2023-01-13T11:22:53.320Z,10.80
2023-01-13T11:25:31.985Z,12.90
2023-01-13T11:28:16.518Z,9.63
2023-01-13T11:30:50.884Z,10.05
2023-01-13T11:33:31.085Z,9.43
2023-01-13T11:36:20.394Z,10.90
2023-01-13T11:38:52.172Z,14.65
2023-01-13T11:41:32.950Z,8.02
2023-01-13T11:44:06.518Z,12.95
2023-01-13T11:46:33.998Z,7.47
2023-01-13T11:49:01.560Z,9.10
2023-01-13T11:51:51.291Z,12.43
2023-01-13T11:54:22.812Z,7.28
2023-01-13T11:57:09.752Z,9.35
2023-01-13T11:59:58.482Z,8.50
2023-01-13T12:02:37.365Z,11.38
2023-01-13T12:05:28.236Z,7.63
2023-01-13T12:08:04.351Z,15.85
2023-01-13T12:11:00.607Z,9.73
2023-01-13T12:13:46.733Z,11.00
2023-01-13T12:16:19.245Z,10.23
2023-01-13T12:18:55.898Z,17.10
2023-01-13T12:21:28.850Z,6.63
2023-01-13T12:24:24.628Z,12.82
2023-01-13T12:26:58.069Z,12.13
2023-01-13T12:29:37.759Z,13.82
2023-01-13T12:32:14.434Z,12.77
2023-01-13T12:35:12.221Z,13.00
2023-01-13T12:38:04.042Z,10.77
2023-01-13T12:40:51.532Z,9.05
2023-01-13T12:43:38.888Z,7.72
2023-01-13T12:46:23.479Z,5.93
2023-01-13T12:48:55.368Z,8.68
2023-01-13T12:53:48.766Z,15.55
2023-01-13T12:56:42.203Z,9.82
2023-01-13T12:59:21.395Z,11.18
2023-01-13T13:01:50.997Z,8.65
2023-01-13T13:04:41.885Z,11.02
2023-01-13T13:07:13.300Z,7.93
2023-01-13T13:09:45.696Z,16.38
2023-01-13T13:12:59.891Z,11.85
2023-01-13T13:15:34.498Z,11.93
2023-01-13T13:18:21.928Z,7.95
2023-01-13T13:21:07.161Z,11.77
2023-01-13T13:23:39.141Z,7.72
2023-01-13T13:29:02.649Z,5.07
2023-01-13T13:31:45.002Z,14.75
2023-01-13T13:34:24.301Z,13.43
2023-01-13T13:37:02.348Z,11.48
2023-01-13T13:39:51.867Z,8.75
2023-01-13T13:42:43.409Z,7.55
2023-01-13T13:45:47.293Z,11.43
2023-01-13T13:48:25.636Z,5.88
2023-01-13T13:51:03.885Z,14.45
2023-01-13T13:53:34.890Z,3.75
2023-01-13T13:56:04.795Z,5.88
2023-01-13T13:58:36.964Z,10.15
2023-01-13T14:01:05.326Z,7.82
2023-01-13T14:03:36.266Z,11.95
2023-01-13T14:08:38.888Z,13.27
2023-01-13T14:11:44.426Z,11.23
2023-01-13T14:14:17.045Z,11.77
2023-01-13T14:16:43.961Z,7.53
2023-01-13T14:19:36.389Z,9.27
2023-01-13T14:22:05.142Z,13.98
2023-01-13T14:24:32.950Z,11.63
2023-01-13T14:27:30.429Z,8.75
2023-01-13T14:30:00.219Z,13.10
2023-01-13T14:32:37.636Z,14.65
2023-01-13T14:35:08.197Z,17.13
2023-01-13T14:37:40.290Z,8.52
2023-01-13T14:40:27.234Z,10.55
2023-01-13T14:43:01.528Z,14.18
2023-01-13T14:45:28.665Z,10.40
2023-01-13T14:47:55.514Z,10.80
2023-01-13T14:50:31.537Z,12.43
2023-01-13T14:53:00.865Z,19.55
2023-01-13T14:55:33.690Z,11.63
2023-01-13T14:58:22.104Z,12.68
2023-01-13T15:00:50.090Z,4.65
2023-01-13T15:03:18.663Z,11.40
2023-01-13T15:05:48.092Z,8.95
2023-01-13T15:08:14.621Z,10.00
2023-01-13T15:10:48.929Z,11.18
2023-01-13T15:13:36.207Z,15.27
2023-01-13T15:16:34.814Z,11.80
2023-01-13T15:19:01.671Z,10.00
2023-01-13T15:21:28.701Z,10.95
2023-01-13T15:23:55.513Z,18.67
2023-01-13T15:26:25.466Z,14.93
2023-01-13T15:28:53.795Z,13.93
2023-01-13T15:31:21.404Z,10.50
2023-01-13T15:33:48.546Z,9.73
2023-01-13T15:36:27.320Z,6.07
2023-01-13T15:38:54.217Z,12.40
2023-01-13T15:41:41.023Z,10.15
2023-01-13T15:44:29.396Z,21.27
2023-01-13T15:46:57.051Z,10.38
2023-01-13T15:49:35.032Z,9.35
2023-01-13T15:52:22.980Z,8.02
2023-01-13T15:54:50.960Z,11.90
2023-01-13T15:57:27.072Z,12.52
2023-01-13T15:59:57.856Z,11.45
2023-01-13T16:02:25.375Z,7.97
2023-01-13T16:04:54.088Z,11.18
2023-01-13T16:07:23.704Z,15.55
2023-01-13T16:09:51.193Z,16.55
2023-01-13T16:12:18.092Z,10.18
2023-01-13T16:14:44.845Z,11.85
2023-01-13T16:17:17.465Z,10.40
2023-01-13T16:19:45.367Z,12.13
2023-01-13T16:22:14.367Z,8.38
2023-01-13T16:24:41.734Z,9.63
2023-01-13T16:27:23.388Z,13.32
2023-01-13T16:29:51.898Z,9.15
2023-01-13T16:32:21.053Z,12.80
2023-01-13T16:34:48.324Z,10.43
2023-01-13T16:37:27.888Z,12.18
2023-01-13T16:39:54.738Z,9.75
2023-01-13T16:42:21.857Z,9.75
2023-01-13T16:44:49.809Z,11.57
2023-01-13T16:47:18.097Z,10.88
2023-01-13T16:49:45.928Z,11.80
2023-01-13T16:52:12.702Z,10.75
2023-01-13T16:54:39.589Z,11.77
2023-01-13T16:57:07.908Z,10.30
2023-01-13T16:59:34.668Z,12.25
2023-01-13T17:02:02.214Z,12.93
2023-01-13T17:04:29.182Z,12.75
2023-01-13T17:07:04.576Z,9.57
2023-01-13T17:09:31.599Z,18.65
2023-01-13T17:11:58.553Z,11.38
2023-01-13T17:14:26.167Z,14.55
2023-01-13T17:16:57.205Z,10.52
2023-01-13T17:19:24.550Z,10.35
2023-01-13T17:21:51.553Z,10.23
2023-01-13T17:24:18.724Z,11.35
2023-01-13T17:26:49.330Z,7.20
2023-01-13T17:29:22.693Z,8.80
2023-01-13T17:31:53.034Z,6.38
2023-01-13T17:34:22.340Z,9.15
2023-01-13T17:36:49.464Z,10.40
2023-01-13T17:39:19.336Z,8.05
2023-01-13T17:41:46.550Z,14.15
2023-01-13T17:44:14.949Z,12.13
2023-01-13T17:46:42.487Z,3.95
2023-01-13T17:49:11.566Z,5.35
2023-01-13T17:51:38.774Z,6.57
2023-01-13T17:54:05.613Z,10.88
2023-01-13T17:56:32.648Z,10.70
2023-01-13T17:58:59.786Z,12.32
2023-01-13T18:01:30.870Z,9.80
2023-01-13T18:03:57.909Z,9.48
2023-01-13T18:06:26.229Z,10.23
2023-01-13T18:08:54.042Z,12.73
2023-01-13T18:11:22.793Z,15.27
2023-01-13T18:14:03.519Z,18.83
2023-01-13T18:16:32.439Z,13.73
2023-01-13T18:19:18.423Z,11.05
2023-01-13T18:22:05.023Z,10.45
2023-01-13T18:24:51.605Z,9.25
2023-01-13T18:27:23.779Z,11.45
2023-01-13T18:29:53.713Z,9.77
2023-01-13T18:32:21.771Z,13.88
2023-01-13T18:34:49.084Z,16.63
2023-01-13T18:37:17.628Z,10.65
2023-01-13T18:39:44.396Z,11.15
2023-01-13T18:42:29.890Z,9.57
2023-01-13T18:44:57.976Z,8.45
2023-01-13T18:47:26.544Z,12.40
2023-01-13T18:49:53.619Z,9.18
2023-01-13T18:52:20.529Z,10.88
2023-01-13T18:54:47.769Z,12.07
2023-01-13T18:57:16.013Z,12.73
2023-01-13T18:59:42.979Z,11.95
2023-01-13T19:02:19.642Z,8.20
2023-01-13T19:04:47.242Z,12.38
2023-01-13T19:07:22.438Z,10.82
2023-01-13T19:09:56.131Z,10.55
2023-01-13T19:12:26.556Z,9.05
2023-01-13T19:14:55.004Z,16.17
2023-01-13T19:17:23.641Z,9.73
2023-01-13T19:19:53.764Z,10.60
2023-01-13T19:22:29.788Z,9.73
2023-01-13T19:24:58.025Z,8.13
2023-01-13T19:27:25.620Z,9.18
2023-01-13T19:29:53.878Z,10.98
2023-01-13T19:32:22.093Z,13.45
2023-01-13T19:34:51.089Z,11.95
2023-01-13T19:37:19.095Z,9.23
2023-01-13T19:39:46.118Z,6.18
2023-01-13T19:42:32.367Z,12.43
2023-01-13T19:45:18.131Z,8.48
2023-01-13T19:47:47.239Z,11.75
2023-01-13T19:50:14.545Z,9.07
2023-01-13T19:52:44.783Z,9.85
2023-01-13T19:55:14.718Z,6.97
2023-01-13T19:57:41.756Z,10.80
2023-01-13T20:00:09.690Z,10.70
2023-01-13T20:02:52.093Z,7.85
2023-01-13T20:05:22.763Z,2.80
2023-01-13T20:07:51.382Z,14.70
2023-01-13T20:10:20.332Z,15.85
2023-01-13T20:12:47.207Z,8.95
2023-01-13T20:15:14.333Z,9.60
2023-01-13T20:17:41.850Z,13.73
2023-01-13T20:20:10.622Z,9.32
2023-01-13T20:22:39.464Z,12.40
2023-01-13T20:25:07.650Z,11.48
2023-01-13T20:27:34.635Z,6.88
2023-01-13T20:30:01.770Z,7.97
2023-01-13T20:32:29.249Z,11.80
2023-01-13T20:34:56.480Z,5.75
2023-01-13T20:37:23.828Z,14.23
2023-01-13T20:39:51.026Z,14.32
2023-01-13T20:42:30.481Z,7.32
2023-01-13T20:45:02.246Z,7.88
2023-01-13T20:49:57.322Z,7.70
2023-01-13T20:52:25.087Z,7.75
2023-01-13T20:54:53.552Z,6.43
2023-01-13T20:57:20.695Z,10.35
2023-01-13T20:59:47.926Z,10.18
2023-01-13T21:02:16.466Z,10.05
2023-01-13T21:04:45.554Z,13.85
2023-01-13T21:07:12.714Z,12.65
2023-01-13T21:09:39.949Z,8.55
2023-01-13T21:12:33.229Z,9.70
2023-01-13T21:15:18.747Z,12.55
2023-01-13T21:18:05.567Z,11.02
2023-01-13T21:20:34.920Z,15.02
2023-01-13T21:23:03.239Z,11.65
2023-01-13T21:25:32.696Z,18.08
2023-01-13T21:28:05.625Z,8.23
2023-01-13T21:30:33.604Z,9.88
2023-01-13T21:33:00.993Z,13.48
2023-01-13T21:35:28.047Z,14.98
2023-01-13T21:37:54.732Z,11.50
2023-01-13T21:40:22.658Z,8.35
2023-01-13T21:43:07.671Z,9.07
2023-01-13T21:45:53.092Z,7.70
2023-01-13T21:48:19.820Z,11.60
2023-01-13T21:50:46.653Z,8.95
2023-01-13T21:53:13.379Z,6.00
2023-01-13T21:55:40.335Z,9.32
2023-01-13T21:58:14.172Z,8.35
2023-01-13T22:00:43.412Z,17.85
2023-01-13T22:03:15.366Z,12.52
2023-01-13T22:08:12.732Z,14.20
2023-01-13T22:10:57.270Z,5.13
2023-01-13T22:13:58.237Z,13.68
2023-01-13T22:16:25.637Z,7.63
2023-01-13T22:18:53.131Z,13.32
2023-01-13T22:21:20.300Z,12.45
2023-01-13T22:23:47.277Z,12.05
2023-01-13T22:26:13.980Z,10.73
2023-01-13T22:28:42.732Z,8.82
2023-01-13T22:31:12.313Z,12.38
2023-01-13T22:33:40.366Z,7.57
2023-01-13T22:36:08.560Z,9.43
2023-01-13T22:38:35.990Z,8.27
2023-01-13T22:41:06.253Z,11.98
2023-01-13T22:43:33.798Z,12.70
2023-01-13T22:46:06.880Z,14.65
2023-01-13T22:48:33.929Z,13.10
2023-01-13T22:51:05.592Z,12.18
2023-01-13T22:53:32.322Z,9.20
2023-01-13T22:56:00.503Z,12.93
2023-01-13T22:58:27.967Z,9.65
2023-01-13T23:00:56.374Z,15.25
2023-01-13T23:03:23.294Z,12.32
2023-01-13T23:05:56.539Z,15.65
2023-01-13T23:08:23.210Z,19.33
2023-01-13T23:10:50.148Z,12.82
2023-01-13T23:13:17.065Z,9.68
2023-01-13T23:15:43.834Z,12.73
2023-01-13T23:18:11.680Z,14.75
2023-01-13T23:20:38.578Z,10.35
2023-01-13T23:23:05.363Z,9.75
2023-01-13T23:25:32.038Z,11.25
2023-01-13T23:27:58.824Z,12.82
2023-01-13T23:30:25.511Z,19.77
2023-01-13T23:32:57.485Z,13.65
2023-01-13T23:35:24.336Z,11.05
2023-01-13T23:37:53.216Z,11.02
2023-01-13T23:40:19.908Z,15.57
2023-01-13T23:42:47.800Z,12.57
2023-01-13T23:45:14.439Z,12.00
2023-01-13T23:47:41.402Z,13.50
2023-01-13T23:50:08.976Z,12.35
2023-01-13T23:52:35.672Z,13.65
2023-01-13T23:55:03.955Z,10.27
2023-01-13T23:57:30.685Z,10.85
2023-01-13T23:59:57.610Z,18.48
